createdAt,value
2022-08-28T00:01:57.834Z,8.18
2022-08-28T00:04:24.479Z,9.93
2022-08-28T00:06:51.232Z,8.32
2022-08-28T00:09:17.973Z,7.05
2022-08-28T00:11:44.606Z,6.72
2022-08-28T00:14:11.502Z,8.90
2022-08-28T00:16:38.665Z,8.38
2022-08-28T00:19:05.994Z,7.90
2022-08-28T00:21:33.440Z,6.38
2022-08-28T00:24:00.833Z,6.68
2022-08-28T00:26:46.384Z,7.32
2022-08-28T00:29:13.039Z,6.40
2022-08-28T00:31:39.781Z,6.40
2022-08-28T00:34:07.983Z,8.15
2022-08-28T00:36:34.712Z,5.68
2022-08-28T00:39:01.416Z,6.55
2022-08-28T00:41:31.258Z,5.85
2022-08-28T00:44:23.827Z,8.57
2022-08-28T00:46:52.585Z,6.97
2022-08-28T00:49:23.027Z,7.20
2022-08-28T00:52:08.010Z,6.60
2022-08-28T00:54:59.974Z,6.63
2022-08-28T00:57:36.843Z,8.43
2022-08-28T01:00:10.754Z,7.78
2022-08-28T01:02:37.543Z,8.67
2022-08-28T01:05:08.886Z,7.18
2022-08-28T01:07:39.109Z,6.85
2022-08-28T01:10:08.570Z,5.72
2022-08-28T01:12:35.751Z,6.68
2022-08-28T01:15:09.343Z,6.03
2022-08-28T01:17:36.649Z,6.03
2022-08-28T01:20:13.901Z,5.85
2022-08-28T01:22:54.853Z,9.32
2022-08-28T01:25:23.466Z,5.93
2022-08-28T01:27:51.662Z,5.68
2022-08-28T01:30:22.135Z,6.68
2022-08-28T01:32:52.205Z,6.85
2022-08-28T01:35:22.939Z,5.45
2022-08-28T01:37:49.938Z,6.88
2022-08-28T01:40:23.013Z,6.10
2022-08-28T01:42:50.454Z,6.82
2022-08-28T01:45:19.134Z,6.88
2022-08-28T01:47:46.763Z,6.35
2022-08-28T01:50:16.090Z,6.70
2022-08-28T01:52:43.004Z,6.05
2022-08-28T01:55:10.916Z,7.75
2022-08-28T01:57:46.290Z,7.18
2022-08-28T02:00:14.450Z,7.28
2022-08-28T02:02:41.070Z,5.90
2022-08-28T02:05:09.161Z,5.60
2022-08-28T02:07:36.210Z,7.03
2022-08-28T02:10:03.366Z,6.18
2022-08-28T02:12:30.313Z,6.78
2022-08-28T02:14:56.902Z,7.38
2022-08-28T02:17:23.824Z,7.13
2022-08-28T02:19:51.779Z,5.47
2022-08-28T02:22:18.389Z,5.53
2022-08-28T02:24:45.382Z,6.50
2022-08-28T02:27:11.966Z,6.93
2022-08-28T02:29:39.301Z,5.47
2022-08-28T02:32:06.202Z,6.68
2022-08-28T02:34:34.549Z,8.07
2022-08-28T02:37:01.161Z,7.22
2022-08-28T02:39:27.990Z,7.38
2022-08-28T02:41:54.561Z,6.30
2022-08-28T02:44:21.326Z,5.57
2022-08-28T02:46:47.911Z,5.63
2022-08-28T02:49:14.481Z,6.28
2022-08-28T02:51:41.081Z,6.47
2022-08-28T02:54:07.663Z,6.38
2022-08-28T02:56:34.436Z,5.65
2022-08-28T02:59:01.102Z,5.57
2022-08-28T03:01:28.150Z,5.30
2022-08-28T03:03:54.801Z,7.18
2022-08-28T03:06:22.962Z,5.85
2022-08-28T03:08:49.527Z,5.78
2022-08-28T03:11:16.167Z,5.00
2022-08-28T03:13:42.874Z,7.30
2022-08-28T03:16:10.044Z,5.80
2022-08-28T03:18:37.076Z,6.13
2022-08-28T03:21:03.812Z,6.75
2022-08-28T03:23:32.077Z,6.38
2022-08-28T03:26:10.266Z,6.82
2022-08-28T03:28:44.599Z,7.13
2022-08-28T03:31:14.276Z,6.97
2022-08-28T03:33:42.766Z,6.72
2022-08-28T03:36:11.722Z,6.07
2022-08-28T03:38:38.481Z,6.53
2022-08-28T03:41:10.572Z,6.82
2022-08-28T03:43:37.342Z,7.70
2022-08-28T03:46:05.832Z,6.63
2022-08-28T03:48:36.298Z,7.10
2022-08-28T03:51:09.983Z,7.03
2022-08-28T03:53:37.216Z,6.70
2022-08-28T03:56:12.551Z,8.25
2022-08-28T03:58:40.749Z,7.00
2022-08-28T04:01:07.953Z,6.90
2022-08-28T04:03:35.379Z,6.85
2022-08-28T04:06:02.451Z,6.60
2022-08-28T04:08:29.477Z,6.45
2022-08-28T04:10:56.404Z,7.95
2022-08-28T04:13:23.471Z,7.15
2022-08-28T04:16:02.522Z,7.60
2022-08-28T04:18:32.953Z,7.65
2022-08-28T04:21:02.395Z,7.68
2022-08-28T04:23:29.713Z,7.93
2022-08-28T04:25:56.352Z,7.78
2022-08-28T04:28:23.699Z,9.57
2022-08-28T04:30:54.702Z,6.90
2022-08-28T04:33:26.726Z,7.57
2022-08-28T04:35:53.781Z,7.93
2022-08-28T04:38:20.861Z,8.73
2022-08-28T04:40:47.501Z,8.15
2022-08-28T04:43:14.555Z,7.95
2022-08-28T04:45:45.090Z,8.07
2022-08-28T04:48:13.775Z,7.63
2022-08-28T04:50:45.406Z,9.35
2022-08-28T04:53:12.311Z,6.88
2022-08-28T04:55:53.919Z,8.13
2022-08-28T04:58:23.812Z,7.45
2022-08-28T05:00:52.030Z,7.55
2022-08-28T05:03:18.684Z,7.07
2022-08-28T05:05:48.329Z,7.10
2022-08-28T05:08:16.398Z,7.50
2022-08-28T05:10:43.329Z,7.53
2022-08-28T05:13:11.328Z,7.22
2022-08-28T05:15:49.929Z,6.47
2022-08-28T05:18:18.207Z,7.65
2022-08-28T05:20:46.319Z,8.07
2022-08-28T05:23:14.829Z,6.75
2022-08-28T05:25:44.126Z,7.20
2022-08-28T05:28:12.459Z,7.38
2022-08-28T05:30:41.841Z,7.65
2022-08-28T05:33:09.509Z,7.55
2022-08-28T05:35:38.692Z,6.07
2022-08-28T05:38:06.569Z,7.97
2022-08-28T05:40:33.872Z,7.05
2022-08-28T05:43:00.489Z,7.00
2022-08-28T05:45:27.048Z,7.47
2022-08-28T05:47:54.025Z,8.30
2022-08-28T05:50:20.589Z,7.47
2022-08-28T05:52:47.498Z,7.68
2022-08-28T05:55:14.532Z,8.40
2022-08-28T05:57:41.879Z,6.55
2022-08-28T06:00:13.044Z,7.53
2022-08-28T06:02:40.633Z,7.32
2022-08-28T06:05:07.770Z,7.68
2022-08-28T06:07:35.057Z,8.10
2022-08-28T06:10:01.913Z,7.60
2022-08-28T06:12:28.507Z,7.43
2022-08-28T06:14:55.342Z,7.45
2022-08-28T06:17:23.934Z,8.05
2022-08-28T06:19:51.036Z,8.20
2022-08-28T06:22:18.520Z,8.85
2022-08-28T06:24:45.142Z,9.15
2022-08-28T06:27:11.734Z,8.63
2022-08-28T06:29:39.817Z,7.85
2022-08-28T06:32:06.529Z,7.93
2022-08-28T06:34:33.329Z,7.55
2022-08-28T06:37:00.737Z,8.27
2022-08-28T06:39:27.342Z,8.35
2022-08-28T06:41:53.947Z,8.30
2022-08-28T06:44:21.810Z,9.73
2022-08-28T06:46:50.710Z,9.50
2022-08-28T06:49:17.419Z,8.50
2022-08-28T06:51:44.053Z,7.70
2022-08-28T06:54:10.891Z,6.85
2022-08-28T06:56:38.435Z,8.20
2022-08-28T06:59:05.317Z,8.20
2022-08-28T07:01:35.015Z,8.63
2022-08-28T07:04:06.218Z,8.65
2022-08-28T07:06:39.618Z,7.68
2022-08-28T07:09:11.326Z,8.10
2022-08-28T07:11:39.385Z,8.75
2022-08-28T07:14:06.647Z,8.02
2022-08-28T07:16:38.312Z,8.85
2022-08-28T07:19:10.597Z,9.70
2022-08-28T07:21:39.441Z,8.73
2022-08-28T07:24:07.074Z,7.68
2022-08-28T07:26:35.630Z,7.85
2022-08-28T07:29:10.319Z,8.52
2022-08-28T07:31:44.118Z,8.80
2022-08-28T07:34:12.001Z,8.30
2022-08-28T07:36:39.532Z,8.48
2022-08-28T07:39:07.570Z,8.10
2022-08-28T07:41:36.350Z,7.50
2022-08-28T07:44:21.846Z,8.95
2022-08-28T07:46:48.478Z,7.55
2022-08-28T07:49:18.452Z,8.30
2022-08-28T07:51:46.704Z,7.93
2022-08-28T07:54:17.736Z,9.15
2022-08-28T07:56:45.239Z,8.45
2022-08-28T07:59:11.978Z,7.20
2022-08-28T08:01:43.020Z,8.07
2022-08-28T08:04:12.763Z,10.63
2022-08-28T08:06:41.329Z,9.23
2022-08-28T08:09:09.470Z,8.30
2022-08-28T08:11:36.273Z,9.75
2022-08-28T08:14:05.687Z,9.38
2022-08-28T08:16:38.878Z,9.90
2022-08-28T08:19:06.155Z,10.13
2022-08-28T08:21:32.777Z,9.45
2022-08-28T08:23:59.561Z,9.15
2022-08-28T08:26:28.251Z,8.43
2022-08-28T08:28:55.799Z,9.32
2022-08-28T08:31:28.382Z,9.10
2022-08-28T08:34:01.894Z,9.15
2022-08-28T08:36:29.770Z,9.35
2022-08-28T08:38:59.262Z,9.50
2022-08-28T08:41:48.136Z,9.73
2022-08-28T08:44:23.737Z,9.13
2022-08-28T08:47:14.597Z,9.45
2022-08-28T08:49:47.755Z,9.40
2022-08-28T08:52:17.381Z,9.65
2022-08-28T08:54:45.578Z,8.20
2022-08-28T08:57:14.093Z,8.38
2022-08-28T08:59:41.187Z,9.35
2022-08-28T09:02:14.273Z,8.77
2022-08-28T09:04:56.400Z,8.52
2022-08-28T09:07:26.500Z,7.90
2022-08-28T09:09:55.048Z,9.07
2022-08-28T09:12:27.381Z,8.93
2022-08-28T09:14:58.502Z,8.95
2022-08-28T09:17:30.203Z,10.85
2022-08-28T09:19:56.900Z,9.18
2022-08-28T09:22:23.578Z,10.18
2022-08-28T09:24:51.915Z,8.63
2022-08-28T09:27:28.127Z,5.68
2022-08-28T09:30:09.388Z,5.07
2022-08-28T09:32:43.592Z,4.68
2022-08-28T09:35:31.824Z,5.68
2022-08-28T09:38:18.886Z,6.45
2022-08-28T09:41:04.446Z,4.55
2022-08-28T09:43:33.514Z,6.07
2022-08-28T09:46:01.801Z,5.55
2022-08-28T09:48:37.606Z,5.15
2022-08-28T09:51:08.397Z,4.80
2022-08-28T09:54:03.072Z,4.68
2022-08-28T09:56:39.801Z,5.03
2022-08-28T09:59:09.729Z,5.55
2022-08-28T10:01:44.787Z,5.28
2022-08-28T10:04:11.923Z,5.38
2022-08-28T10:06:39.219Z,4.55
2022-08-28T10:09:32.178Z,5.32
2022-08-28T10:12:13.027Z,5.32
2022-08-28T10:15:10.159Z,5.85
2022-08-28T10:18:01.866Z,5.35
2022-08-28T10:20:39.582Z,5.80
2022-08-28T10:23:20.756Z,4.75
2022-08-28T10:25:56.558Z,5.28
2022-08-28T10:28:50.942Z,5.82
2022-08-28T10:31:28.433Z,5.67
2022-08-28T10:34:27.816Z,6.20
2022-08-28T10:37:06.410Z,6.07
2022-08-28T10:39:37.232Z,6.43
2022-08-28T10:42:05.570Z,6.03
2022-08-28T10:44:57.802Z,6.20
2022-08-28T10:47:28.502Z,5.95
2022-08-28T10:50:01.866Z,4.78
2022-08-28T10:52:39.058Z,4.30
2022-08-28T10:55:14.246Z,5.03
2022-08-28T10:57:44.689Z,5.05
2022-08-28T11:00:20.392Z,5.75
2022-08-28T11:02:52.742Z,5.57
2022-08-28T11:05:24.345Z,5.63
2022-08-28T11:07:54.821Z,5.60
2022-08-28T11:10:46.024Z,4.60
2022-08-28T11:13:13.136Z,5.35
2022-08-28T11:15:42.394Z,6.47
2022-08-28T11:18:15.756Z,6.35
2022-08-28T11:20:44.542Z,6.00
2022-08-28T11:23:20.153Z,6.38
2022-08-28T11:25:54.743Z,7.22
2022-08-28T11:28:24.275Z,7.45
2022-08-28T11:31:19.074Z,7.38
2022-08-28T11:33:56.146Z,6.97
2022-08-28T11:36:22.709Z,8.43
2022-08-28T11:38:51.984Z,7.72
2022-08-28T11:41:27.561Z,9.32
2022-08-28T11:44:09.595Z,9.68
2022-08-28T11:46:47.681Z,11.05
2022-08-28T11:49:26.567Z,9.73
2022-08-28T11:51:53.245Z,11.00
2022-08-28T11:54:22.756Z,9.82
2022-08-28T11:56:49.721Z,11.05
2022-08-28T11:59:34.891Z,9.10
2022-08-28T12:02:39.357Z,13.65
2022-08-28T12:05:32.323Z,11.23
2022-08-28T12:08:03.202Z,11.77
2022-08-28T12:10:34.554Z,12.57
2022-08-28T12:13:03.557Z,14.32
2022-08-28T12:15:30.288Z,15.05
2022-08-28T12:18:04.163Z,16.63
2022-08-28T12:20:41.436Z,18.83
2022-08-28T12:23:29.763Z,20.13
2022-08-28T12:26:26.886Z,21.75
2022-08-28T12:29:16.496Z,20.25
2022-08-28T12:32:12.438Z,21.17
2022-08-28T12:34:57.584Z,21.08
2022-08-28T12:37:52.799Z,20.42
2022-08-28T12:40:28.931Z,19.00
2022-08-28T12:43:10.540Z,16.80
2022-08-28T12:45:40.116Z,18.10
2022-08-28T12:48:25.827Z,17.33
2022-08-28T12:51:03.329Z,18.48
2022-08-28T12:53:39.016Z,18.70
2022-08-28T12:56:05.659Z,19.00
2022-08-28T12:58:35.147Z,18.88
2022-08-28T13:01:09.337Z,17.27
2022-08-28T13:03:44.960Z,19.23
2022-08-28T13:06:11.739Z,19.15
2022-08-28T13:08:38.394Z,18.15
2022-08-28T13:11:05.210Z,17.88
2022-08-28T13:13:43.665Z,19.73
2022-08-28T13:16:12.030Z,17.58
2022-08-28T13:18:41.474Z,19.58
2022-08-28T13:21:31.733Z,15.63
2022-08-28T13:24:01.969Z,17.20
2022-08-28T13:26:33.176Z,16.35
2022-08-28T13:29:01.723Z,17.52
2022-08-28T13:31:33.884Z,17.70
2022-08-28T13:34:08.665Z,19.05
2022-08-28T13:36:48.598Z,21.35
2022-08-28T13:39:17.158Z,21.13
2022-08-28T13:41:47.110Z,22.20
2022-08-28T13:44:32.259Z,21.85
2022-08-28T13:47:00.171Z,21.88
2022-08-28T13:49:28.068Z,23.23
2022-08-28T13:51:56.933Z,23.30
2022-08-28T13:54:24.373Z,24.73
2022-08-28T13:56:52.718Z,23.98
2022-08-28T13:59:20.039Z,26.88
2022-08-28T14:02:06.025Z,27.08
2022-08-28T14:04:32.743Z,27.73
2022-08-28T14:06:59.502Z,29.02
2022-08-28T14:09:27.117Z,28.25
2022-08-28T14:11:55.570Z,27.55
2022-08-28T14:14:22.543Z,29.17
2022-08-28T14:16:53.196Z,26.17
2022-08-28T14:19:20.045Z,28.92
2022-08-28T14:21:46.626Z,30.17
2022-08-28T14:24:13.305Z,26.90
2022-08-28T14:26:40.663Z,33.65
2022-08-28T14:29:09.625Z,31.67
2022-08-28T14:31:36.945Z,30.73
2022-08-28T14:34:05.123Z,33.70
2022-08-28T14:36:34.444Z,37.58
2022-08-28T14:39:06.074Z,37.67
2022-08-28T14:41:33.521Z,41.88
2022-08-28T14:44:00.397Z,44.10
2022-08-28T14:46:46.945Z,43.25
2022-08-28T14:49:15.859Z,42.03
2022-08-28T14:51:43.971Z,42.20
2022-08-28T14:54:12.398Z,40.78
2022-08-28T14:56:39.083Z,37.28
2022-08-28T14:59:11.164Z,37.28
2022-08-28T15:01:41.226Z,37.13
2022-08-28T15:04:11.462Z,35.95
2022-08-28T15:06:38.339Z,37.67
2022-08-28T15:09:05.430Z,34.17
2022-08-28T15:11:32.067Z,28.73
2022-08-28T15:13:58.810Z,26.60
2022-08-28T15:16:30.270Z,26.00
2022-08-28T15:18:58.939Z,25.10
2022-08-28T15:21:32.709Z,24.10
2022-08-28T15:24:01.309Z,21.67
2022-08-28T15:26:28.759Z,21.42
2022-08-28T15:28:58.173Z,22.83
2022-08-28T15:31:25.102Z,23.55
2022-08-28T15:33:52.341Z,22.17
2022-08-28T15:36:20.065Z,25.38
2022-08-28T15:39:05.121Z,27.77
2022-08-28T15:44:01.406Z,26.20
2022-08-28T15:46:33.769Z,27.10
2022-08-28T15:49:02.621Z,27.13
2022-08-28T15:51:30.272Z,27.95
2022-08-28T15:53:56.928Z,29.05
2022-08-28T15:56:24.571Z,26.85
2022-08-28T15:58:52.038Z,31.17
2022-08-28T16:01:20.333Z,28.77
2022-08-28T16:03:46.989Z,29.50
2022-08-28T16:06:16.067Z,32.00
2022-08-28T16:08:43.741Z,29.92
2022-08-28T16:11:11.965Z,35.30
2022-08-28T16:13:38.749Z,36.53
2022-08-28T16:16:05.422Z,46.45
2022-08-28T16:18:32.055Z,43.70
2022-08-28T16:21:02.691Z,45.33
2022-08-28T16:23:31.217Z,45.85
2022-08-28T16:25:57.829Z,46.22
2022-08-28T16:28:24.469Z,41.00
2022-08-28T16:30:53.981Z,43.67
2022-08-28T16:33:22.211Z,41.65
2022-08-28T16:35:55.065Z,37.85
2022-08-28T16:38:22.756Z,38.03
2022-08-28T16:40:49.655Z,37.42
2022-08-28T16:43:16.446Z,35.88
2022-08-28T16:45:45.027Z,33.50
2022-08-28T16:48:12.944Z,28.58
2022-08-28T16:50:41.451Z,30.95
2022-08-28T16:53:08.594Z,29.70
2022-08-28T16:55:35.464Z,20.70
2022-08-28T16:58:02.063Z,19.48
2022-08-28T17:00:28.748Z,20.05
2022-08-28T17:02:55.457Z,19.45
2022-08-28T17:05:24.763Z,14.02
2022-08-28T17:07:52.017Z,15.27
2022-08-28T17:10:20.886Z,14.82
2022-08-28T17:12:47.534Z,11.07
2022-08-28T17:15:14.167Z,10.45
2022-08-28T17:17:41.385Z,10.18
2022-08-28T17:20:29.946Z,8.60
2022-08-28T17:22:56.724Z,9.05
2022-08-28T17:25:23.897Z,5.78
2022-08-28T17:27:50.542Z,5.93
2022-08-28T17:30:19.006Z,7.35
2022-08-28T17:32:46.111Z,5.75
2022-08-28T17:35:12.957Z,6.57
2022-08-28T17:37:40.766Z,5.57
2022-08-28T17:40:13.465Z,5.53
2022-08-28T17:42:40.635Z,6.00
2022-08-28T17:45:08.426Z,6.00
2022-08-28T17:47:34.983Z,6.07
2022-08-28T17:50:02.223Z,6.57
2022-08-28T17:52:29.510Z,5.28
2022-08-28T17:54:56.219Z,8.77
2022-08-28T17:57:24.255Z,9.90
2022-08-28T17:59:50.866Z,11.15
2022-08-28T18:02:17.796Z,13.15
2022-08-28T18:04:44.552Z,12.32
2022-08-28T18:07:11.369Z,12.75
2022-08-28T18:09:37.958Z,12.90
2022-08-28T18:12:06.380Z,10.90
2022-08-28T18:14:39.198Z,11.23
2022-08-28T18:17:05.805Z,10.45
2022-08-28T18:19:35.823Z,9.65
2022-08-28T18:22:02.525Z,7.80
2022-08-28T18:24:29.095Z,8.82
2022-08-28T18:26:58.832Z,7.05
2022-08-28T18:29:25.499Z,7.40
2022-08-28T18:31:52.423Z,6.97
2022-08-28T18:34:19.037Z,6.35
2022-08-28T18:36:45.765Z,7.35
2022-08-28T18:39:13.104Z,6.28
2022-08-28T18:41:43.920Z,5.88
2022-08-28T18:44:11.837Z,6.45
2022-08-28T18:46:38.570Z,6.75
2022-08-28T18:49:05.197Z,7.32
2022-08-28T18:51:32.682Z,7.78
2022-08-28T18:54:01.007Z,6.57
2022-08-28T18:56:30.848Z,6.88
2022-08-28T18:58:59.202Z,7.65
2022-08-28T19:01:25.969Z,8.25
2022-08-28T19:03:54.359Z,7.07
2022-08-28T19:06:21.211Z,7.20
2022-08-28T19:08:47.818Z,8.00
2022-08-28T19:11:14.639Z,7.60
2022-08-28T19:13:41.804Z,7.07
2022-08-28T19:16:08.831Z,6.78
2022-08-28T19:18:35.569Z,7.03
2022-08-28T19:21:15.858Z,7.70
2022-08-28T19:23:44.593Z,6.90
2022-08-28T19:26:24.553Z,7.47
2022-08-28T19:28:51.709Z,7.07
2022-08-28T19:31:18.618Z,7.45
2022-08-28T19:33:46.506Z,7.57
2022-08-28T19:36:13.733Z,7.35
2022-08-28T19:38:40.898Z,6.85
2022-08-28T19:41:09.465Z,6.60
2022-08-28T19:43:44.171Z,7.78
2022-08-28T19:46:18.442Z,7.15
2022-08-28T19:48:46.560Z,6.00
2022-08-28T19:51:18.243Z,7.32
2022-08-28T19:53:57.402Z,7.30
2022-08-28T19:58:55.228Z,7.28
2022-08-28T20:01:22.016Z,6.93
2022-08-28T20:03:48.782Z,8.73
2022-08-28T20:06:15.439Z,7.43
2022-08-28T20:08:42.033Z,7.35
2022-08-28T20:11:09.723Z,7.28
2022-08-28T20:13:36.522Z,6.38
2022-08-28T20:16:05.238Z,7.75
2022-08-28T20:18:33.383Z,7.28
2022-08-28T20:21:00.211Z,7.35
2022-08-28T20:23:26.833Z,7.10
2022-08-28T20:25:53.505Z,7.10
2022-08-28T20:28:20.153Z,7.25
2022-08-28T20:30:47.071Z,7.13
2022-08-28T20:33:13.772Z,7.45
2022-08-28T20:35:40.483Z,6.95
2022-08-28T20:38:07.248Z,7.20
2022-08-28T20:40:33.956Z,7.47
2022-08-28T20:43:00.741Z,7.63
2022-08-28T20:45:28.186Z,7.60
2022-08-28T20:47:54.894Z,8.60
2022-08-28T20:50:21.477Z,8.60
2022-08-28T20:52:48.080Z,6.85
2022-08-28T20:55:14.892Z,6.32
2022-08-28T20:57:41.708Z,7.90
2022-08-28T21:00:10.264Z,7.95
2022-08-28T21:02:37.439Z,8.07
2022-08-28T21:05:04.864Z,7.38
2022-08-28T21:07:33.428Z,7.20
2022-08-28T21:10:07.065Z,7.88
2022-08-28T21:12:38.990Z,8.32
2022-08-28T21:15:11.158Z,7.70
2022-08-28T21:17:38.159Z,9.60
2022-08-28T21:20:09.317Z,8.13
2022-08-28T21:22:37.257Z,8.82
2022-08-28T21:25:06.116Z,11.35
2022-08-28T21:27:33.141Z,10.95
2022-08-28T21:30:00.340Z,9.40
2022-08-28T21:32:28.560Z,9.60
2022-08-28T21:34:55.354Z,8.95
2022-08-28T21:37:22.620Z,8.23
2022-08-28T21:39:49.182Z,8.02
2022-08-28T21:42:15.782Z,9.32
2022-08-28T21:44:48.363Z,9.25
2022-08-28T21:47:19.671Z,8.45
2022-08-28T21:49:49.527Z,10.40
2022-08-28T21:52:18.416Z,9.60
2022-08-28T21:54:45.024Z,8.38
2022-08-28T21:57:11.654Z,8.77
2022-08-28T21:59:38.963Z,9.90
2022-08-28T22:02:06.133Z,9.07
2022-08-28T22:04:33.265Z,10.05
2022-08-28T22:06:59.818Z,8.80
2022-08-28T22:09:26.601Z,10.23
2022-08-28T22:11:53.449Z,8.45
2022-08-28T22:14:20.066Z,11.43
2022-08-28T22:16:46.849Z,11.18
2022-08-28T22:19:13.533Z,10.75
2022-08-28T22:21:58.598Z,10.65
2022-08-28T22:24:25.217Z,12.05
2022-08-28T22:26:57.357Z,10.48
2022-08-28T22:29:25.011Z,11.40
2022-08-28T22:31:52.559Z,13.63
2022-08-28T22:34:19.291Z,12.45
2022-08-28T22:36:45.930Z,12.75
2022-08-28T22:39:12.549Z,13.88
2022-08-28T22:41:39.121Z,14.85
2022-08-28T22:44:07.038Z,15.27
2022-08-28T22:46:33.705Z,15.55
2022-08-28T22:49:00.366Z,18.05
2022-08-28T22:51:27.027Z,18.38
2022-08-28T22:53:54.350Z,21.35
2022-08-28T22:56:21.313Z,19.38
2022-08-28T22:58:48.266Z,19.40
2022-08-28T23:01:19.290Z,18.80
2022-08-28T23:03:46.217Z,17.38
2022-08-28T23:06:13.892Z,16.77
2022-08-28T23:08:40.497Z,19.05
2022-08-28T23:11:07.077Z,18.77
2022-08-28T23:13:34.081Z,15.50
2022-08-28T23:16:01.378Z,17.52
2022-08-28T23:18:29.045Z,17.05
2022-08-28T23:20:56.290Z,17.13
2022-08-28T23:23:23.458Z,17.90
2022-08-28T23:25:50.517Z,19.55
2022-08-28T23:28:17.716Z,18.75
2022-08-28T23:30:48.535Z,19.95
2022-08-28T23:33:23.753Z,20.90
2022-08-28T23:35:51.960Z,21.43
2022-08-28T23:38:18.742Z,22.08
2022-08-28T23:40:46.245Z,24.42
2022-08-28T23:43:12.849Z,23.55
2022-08-28T23:45:41.552Z,21.85
2022-08-28T23:48:08.559Z,25.77
2022-08-28T23:50:35.868Z,24.08
2022-08-28T23:53:04.271Z,24.17
2022-08-28T23:55:33.374Z,25.38
2022-08-28T23:58:00.437Z,23.85
